createdAt,value
2019-04-26T00:01:41.210Z,81.20
2019-04-26T00:04:12.072Z,80.80
2019-04-26T00:06:41.924Z,80.70
2019-04-26T00:09:26.567Z,80.80
2019-04-26T00:12:14.555Z,80.70
2019-04-26T00:14:46.074Z,80.90
2019-04-26T00:17:17.778Z,80.70
2019-04-26T00:19:51.344Z,80.60
2019-04-26T00:22:21.808Z,80.80
2019-04-26T00:24:52.685Z,81.20
2019-04-26T00:27:25.354Z,81.10
2019-04-26T00:29:54.975Z,80.90
2019-04-26T00:32:25.116Z,81.00
2019-04-26T00:34:54.806Z,81.30
2019-04-26T00:37:24.711Z,81.10
2019-04-26T00:39:54.729Z,81.10
2019-04-26T00:42:25.059Z,81.10
2019-04-26T00:44:55.242Z,81.20
2019-04-26T00:47:27.410Z,81.70
2019-04-26T00:49:58.302Z,81.70
2019-04-26T00:52:28.212Z,81.60
2019-04-26T00:54:58.672Z,85.60
2019-04-26T00:57:29.739Z,81.80
2019-04-26T01:00:00.486Z,82.10
2019-04-26T01:02:35.171Z,82.30
2019-04-26T01:05:05.936Z,82.40
2019-04-26T01:07:35.607Z,82.40
2019-04-26T01:10:06.206Z,82.50
2019-04-26T01:12:35.769Z,82.20
2019-04-26T01:15:06.832Z,82.50
2019-04-26T01:17:36.427Z,82.00
2019-04-26T01:20:08.071Z,82.40
2019-04-26T01:22:41.045Z,82.40
2019-04-26T01:25:32.058Z,82.50
2019-04-26T01:28:05.264Z,82.50
2019-04-26T01:30:36.529Z,82.20
2019-04-26T01:33:07.172Z,82.30
2019-04-26T01:35:37.463Z,82.50
2019-04-26T01:38:10.338Z,82.90
2019-04-26T01:40:42.532Z,83.20
2019-04-26T01:43:13.845Z,82.90
2019-04-26T01:46:02.744Z,82.90
2019-04-26T01:48:45.484Z,82.90
2019-04-26T01:51:18.137Z,82.50
2019-04-26T01:53:50.889Z,82.50
2019-04-26T01:56:23.607Z,82.30
2019-04-26T01:58:53.789Z,82.40
2019-04-26T02:01:28.189Z,82.10
2019-04-26T02:03:58.050Z,82.40
2019-04-26T02:06:31.272Z,82.00
2019-04-26T02:08:59.286Z,82.00
2019-04-26T02:11:29.069Z,81.90
2019-04-26T02:13:59.058Z,82.20
2019-04-26T02:16:29.181Z,81.90
2019-04-26T02:18:59.421Z,82.20
2019-04-26T02:21:31.958Z,82.20
2019-04-26T02:24:06.741Z,81.80
2019-04-26T02:26:45.732Z,82.20
2019-04-26T02:29:25.104Z,82.40
2019-04-26T02:31:58.154Z,82.40
2019-04-26T02:34:30.781Z,82.80
2019-04-26T02:37:03.337Z,82.60
2019-04-26T02:39:37.496Z,82.70
2019-04-26T02:42:19.570Z,82.50
2019-04-26T02:44:59.928Z,82.70
2019-04-26T02:47:47.076Z,82.60
2019-04-26T02:50:36.970Z,82.70
2019-04-26T02:53:27.498Z,82.30
2019-04-26T02:56:06.675Z,82.50
2019-04-26T02:58:57.463Z,82.50
2019-04-26T03:01:29.552Z,82.30
2019-04-26T03:04:00.070Z,82.70
2019-04-26T03:06:33.922Z,82.60
2019-04-26T03:09:07.918Z,82.90
2019-04-26T03:11:49.652Z,83.00
2019-04-26T03:14:21.609Z,82.90
2019-04-26T03:16:56.190Z,82.40
2019-04-26T03:19:43.115Z,82.60
2019-04-26T03:22:22.227Z,82.50
2019-04-26T03:25:04.083Z,82.70
2019-04-26T03:27:37.832Z,82.90
2019-04-26T03:30:22.138Z,82.50
2019-04-26T03:33:04.180Z,82.50
2019-04-26T03:35:57.966Z,83.50
2019-04-26T03:38:41.898Z,82.60
2019-04-26T03:41:25.351Z,82.80
2019-04-26T03:44:01.277Z,82.40
2019-04-26T03:46:37.804Z,82.60
2019-04-26T03:49:30.748Z,82.40
2019-04-26T03:52:38.024Z,82.60
2019-04-26T03:55:28.529Z,82.80
2019-04-26T03:58:11.835Z,83.00
2019-04-26T04:01:03.082Z,83.60
2019-04-26T04:03:43.108Z,83.50
2019-04-26T04:06:16.232Z,83.90
2019-04-26T04:09:01.877Z,84.00
2019-04-26T04:11:34.715Z,83.90
2019-04-26T04:14:16.558Z,84.10
2019-04-26T04:16:54.129Z,83.90
2019-04-26T04:19:28.568Z,83.80
2019-04-26T04:22:13.625Z,83.70
2019-04-26T04:24:47.448Z,84.00
2019-04-26T04:27:40.010Z,84.20
2019-04-26T04:30:16.644Z,84.30
2019-04-26T04:32:58.971Z,84.30
2019-04-26T04:35:31.575Z,84.40
2019-04-26T04:38:16.663Z,84.30
2019-04-26T04:41:10.435Z,84.40
2019-04-26T04:44:03.032Z,84.20
2019-04-26T04:47:22.285Z,84.20
2019-04-26T04:49:52.732Z,84.50
2019-04-26T04:52:43.249Z,84.20
2019-04-26T04:55:14.741Z,84.10
2019-04-26T04:58:14.714Z,88.60
2019-04-26T05:01:10.075Z,84.80
2019-04-26T05:04:02.805Z,84.40
2019-04-26T05:07:06.135Z,84.40
2019-04-26T05:09:38.921Z,84.50
2019-04-26T05:12:14.398Z,84.30
2019-04-26T05:15:09.880Z,84.30
2019-04-26T05:17:59.204Z,84.50
2019-04-26T05:20:35.010Z,84.80
2019-04-26T05:23:11.234Z,84.70
2019-04-26T05:26:02.141Z,84.80
2019-04-26T05:29:08.488Z,85.10
2019-04-26T05:31:54.318Z,85.20
2019-04-26T05:34:40.807Z,85.20
2019-04-26T05:37:28.334Z,85.20
2019-04-26T05:40:10.153Z,85.20
2019-04-26T05:43:12.002Z,85.00
2019-04-26T05:46:13.400Z,85.30
2019-04-26T05:49:02.959Z,86.00
2019-04-26T05:51:59.014Z,85.10
2019-04-26T05:54:41.976Z,85.30
2019-04-26T05:57:32.834Z,85.60
2019-04-26T06:00:28.443Z,85.50
2019-04-26T06:03:23.675Z,85.60
2019-04-26T06:06:16.135Z,85.60
2019-04-26T06:09:05.538Z,85.40
2019-04-26T06:11:42.406Z,85.60
2019-04-26T06:14:33.448Z,85.90
2019-04-26T06:17:24.101Z,86.10
2019-04-26T06:20:22.804Z,90.20
2019-04-26T06:22:45.398Z,87.00
2019-04-26T06:25:36.206Z,90.20
2019-04-26T06:28:12.123Z,85.90
2019-04-26T06:31:03.482Z,86.20
2019-04-26T06:33:36.641Z,86.00
2019-04-26T06:36:09.660Z,85.70
2019-04-26T06:38:55.982Z,85.70
2019-04-26T06:42:05.401Z,85.40
2019-04-26T06:44:56.274Z,85.70
2019-04-26T06:47:33.239Z,85.70
2019-04-26T06:50:22.548Z,86.10
2019-04-26T06:53:03.539Z,86.10
2019-04-26T06:55:37.962Z,86.30
2019-04-26T06:58:18.584Z,85.90
2019-04-26T07:00:57.440Z,86.30
2019-04-26T07:03:47.027Z,86.30
2019-04-26T07:06:19.851Z,86.70
2019-04-26T07:08:57.820Z,86.20
2019-04-26T07:11:59.353Z,86.40
2019-04-26T07:14:59.296Z,86.70
2019-04-26T07:17:42.246Z,86.80
2019-04-26T07:20:21.826Z,86.90
2019-04-26T07:23:07.990Z,87.20
2019-04-26T07:25:54.223Z,87.10
2019-04-26T07:28:49.056Z,86.60
2019-04-26T07:31:24.664Z,86.80
2019-04-26T07:34:14.409Z,86.90
2019-04-26T07:37:09.728Z,86.70
2019-04-26T07:39:46.876Z,86.70
2019-04-26T07:42:42.732Z,86.60
2019-04-26T07:45:22.914Z,86.30
2019-04-26T07:48:17.300Z,86.40
2019-04-26T07:51:17.372Z,86.90
2019-04-26T07:53:55.964Z,87.20
2019-04-26T07:56:45.187Z,87.30
2019-04-26T07:59:44.007Z,87.00
2019-04-26T08:02:21.020Z,88.00
2019-04-26T08:05:00.158Z,86.90
2019-04-26T08:07:45.471Z,87.50
2019-04-26T08:10:18.303Z,87.50
2019-04-26T08:12:51.022Z,87.40
2019-04-26T08:15:25.436Z,88.20
2019-04-26T08:17:58.710Z,87.00
2019-04-26T08:20:41.807Z,86.40
2019-04-26T08:23:35.019Z,86.30
2019-04-26T08:25:48.025Z,85.80
2019-04-26T08:28:21.176Z,86.00
2019-04-26T08:30:54.702Z,85.30
2019-04-26T08:33:28.878Z,85.30
2019-04-26T08:36:01.636Z,85.40
2019-04-26T08:38:33.229Z,85.70
2019-04-26T08:41:04.955Z,85.50
2019-04-26T08:43:55.841Z,85.10
2019-04-26T08:46:39.783Z,84.40
2019-04-26T08:49:22.610Z,83.60
2019-04-26T08:51:56.002Z,84.20
2019-04-26T08:54:27.863Z,83.70
2019-04-26T08:57:00.924Z,83.10
2019-04-26T08:59:33.590Z,83.10
2019-04-26T09:02:22.980Z,83.70
2019-04-26T09:04:57.688Z,83.60
2019-04-26T09:07:31.357Z,83.10
2019-04-26T09:10:10.727Z,81.80
2019-04-26T09:12:39.358Z,82.30
2019-04-26T09:15:13.906Z,82.80
2019-04-26T09:17:43.771Z,82.50
2019-04-26T09:20:14.244Z,82.60
2019-04-26T09:23:04.883Z,82.90
2019-04-26T09:25:38.992Z,83.00
2019-04-26T09:28:08.409Z,82.70
2019-04-26T09:30:55.460Z,82.70
2019-04-26T09:33:27.495Z,82.40
2019-04-26T09:35:57.404Z,83.00
2019-04-26T09:38:26.995Z,82.10
2019-04-26T09:40:57.317Z,81.90
2019-04-26T09:43:28.836Z,81.80
2019-04-26T09:46:06.081Z,81.40
2019-04-26T09:48:49.522Z,80.50
2019-04-26T09:51:19.630Z,79.90
2019-04-26T09:53:49.352Z,79.30
2019-04-26T09:56:19.254Z,78.40
2019-04-26T09:58:50.040Z,78.80
2019-04-26T10:01:24.166Z,78.20
2019-04-26T10:03:51.450Z,77.30
2019-04-26T10:06:20.966Z,77.70
2019-04-26T10:08:52.437Z,77.00
2019-04-26T10:11:23.666Z,76.40
2019-04-26T10:13:57.795Z,77.10
2019-04-26T10:16:42.364Z,77.30
2019-04-26T10:19:12.727Z,77.20
2019-04-26T10:21:42.577Z,75.70
2019-04-26T10:24:12.231Z,74.80
2019-04-26T10:26:42.068Z,75.10
2019-04-26T10:29:11.895Z,74.00
2019-04-26T10:31:41.419Z,74.40
2019-04-26T10:34:11.833Z,73.40
2019-04-26T10:36:42.483Z,72.60
2019-04-26T10:39:12.792Z,72.80
2019-04-26T10:41:42.708Z,73.20
2019-04-26T10:44:12.408Z,72.20
2019-04-26T10:46:54.842Z,72.60
2019-04-26T10:49:39.674Z,73.00
2019-04-26T10:52:22.111Z,72.10
2019-04-26T10:54:56.611Z,70.50
2019-04-26T10:57:28.849Z,69.90
2019-04-26T11:00:02.831Z,70.60
2019-04-26T11:02:32.571Z,70.40
2019-04-26T11:05:02.387Z,71.30
2019-04-26T11:07:32.334Z,70.00
2019-04-26T11:10:04.502Z,69.00
2019-04-26T11:12:39.657Z,68.50
2019-04-26T11:15:13.704Z,69.20
2019-04-26T11:17:46.081Z,69.80
2019-04-26T11:20:15.420Z,68.40
2019-04-26T11:22:45.494Z,67.00
2019-04-26T11:25:15.296Z,68.70
2019-04-26T11:27:48.557Z,67.50
2019-04-26T11:30:20.827Z,68.40
2019-04-26T11:32:49.271Z,67.10
2019-04-26T11:35:19.130Z,66.60
2019-04-26T11:37:54.687Z,66.50
2019-04-26T11:40:22.123Z,67.20
2019-04-26T11:42:52.454Z,66.60
2019-04-26T11:45:22.410Z,67.00
2019-04-26T11:47:56.201Z,67.00
2019-04-26T11:50:23.568Z,66.90
2019-04-26T11:52:53.358Z,65.60
2019-04-26T11:55:25.327Z,63.90
2019-04-26T11:57:54.795Z,64.40
2019-04-26T12:00:27.650Z,64.20
2019-04-26T12:02:57.755Z,64.40
2019-04-26T12:05:29.028Z,63.20
2019-04-26T12:08:02.953Z,63.30
2019-04-26T12:10:32.548Z,63.90
2019-04-26T12:13:05.812Z,64.00
2019-04-26T12:15:33.707Z,64.40
2019-04-26T12:18:05.563Z,64.80
2019-04-26T12:20:35.141Z,63.80
2019-04-26T12:23:05.146Z,64.40
2019-04-26T12:25:38.621Z,64.00
2019-04-26T12:28:07.344Z,64.20
2019-04-26T12:30:37.598Z,64.20
2019-04-26T12:33:07.121Z,64.30
2019-04-26T12:35:36.706Z,64.30
2019-04-26T12:38:06.502Z,64.20
2019-04-26T12:40:36.024Z,64.30
2019-04-26T12:43:05.675Z,64.00
2019-04-26T12:45:43.363Z,63.80
2019-04-26T12:48:15.769Z,63.40
2019-04-26T12:50:46.286Z,63.90
2019-04-26T12:53:18.050Z,63.80
2019-04-26T12:55:49.269Z,63.60
2019-04-26T12:58:19.056Z,62.90
2019-04-26T13:00:54.389Z,64.00
2019-04-26T13:03:21.038Z,62.20
2019-04-26T13:05:57.697Z,62.80
2019-04-26T13:08:41.418Z,62.70
2019-04-26T13:11:29.093Z,62.30
2019-04-26T13:14:00.308Z,63.50
2019-04-26T13:16:37.475Z,63.40
2019-04-26T13:19:07.092Z,62.90
2019-04-26T13:21:38.739Z,62.70
2019-04-26T13:24:08.571Z,62.60
2019-04-26T13:26:38.487Z,62.70
2019-04-26T13:29:08.384Z,63.00
2019-04-26T13:31:38.735Z,61.90
2019-04-26T13:34:08.637Z,61.70
2019-04-26T13:36:38.619Z,62.00
2019-04-26T13:39:13.502Z,62.10
2019-04-26T13:41:41.855Z,61.10
2019-04-26T13:44:11.572Z,61.20
2019-04-26T13:46:49.162Z,60.60
2019-04-26T13:49:23.418Z,60.90
2019-04-26T13:51:53.203Z,61.70
2019-04-26T13:54:23.137Z,59.80
2019-04-26T13:56:52.684Z,59.90
2019-04-26T13:59:22.510Z,60.50
2019-04-26T14:01:52.121Z,61.00
2019-04-26T14:04:21.983Z,60.80
2019-04-26T14:06:51.938Z,60.90
2019-04-26T14:09:21.766Z,61.20
2019-04-26T14:11:51.299Z,61.80
2019-04-26T14:14:21.178Z,60.80
2019-04-26T14:16:52.090Z,59.80
2019-04-26T14:19:22.255Z,60.20
2019-04-26T14:21:52.782Z,60.10
2019-04-26T14:24:27.123Z,61.40
2019-04-26T14:26:58.561Z,61.00
2019-04-26T14:29:28.399Z,61.10
2019-04-26T14:31:59.677Z,61.30
2019-04-26T14:34:29.527Z,61.20
2019-04-26T14:37:06.292Z,60.00
2019-04-26T14:39:49.238Z,61.20
2019-04-26T14:42:02.695Z,61.20
2019-04-26T14:44:32.870Z,60.70
2019-04-26T14:47:12.890Z,60.90
2019-04-26T14:49:39.223Z,61.10
2019-04-26T14:52:05.476Z,61.60
2019-04-26T14:54:35.018Z,62.20
2019-04-26T14:57:11.356Z,61.10
2019-04-26T14:59:46.835Z,61.90
2019-04-26T15:02:35.473Z,62.30
2019-04-26T15:05:09.345Z,62.70
2019-04-26T15:07:48.616Z,63.00
2019-04-26T15:10:11.153Z,63.00
2019-04-26T15:12:46.946Z,62.70
2019-04-26T15:15:13.331Z,62.60
2019-04-26T15:17:43.221Z,62.70
2019-04-26T15:20:16.696Z,62.50
2019-04-26T15:22:48.724Z,61.90
2019-04-26T15:25:16.274Z,61.20
2019-04-26T15:27:46.142Z,60.70
2019-04-26T15:30:16.418Z,60.60
2019-04-26T15:32:45.939Z,60.60
2019-04-26T15:35:17.755Z,59.40
2019-04-26T15:37:47.054Z,59.70
2019-04-26T15:40:35.226Z,59.70
2019-04-26T15:43:15.996Z,59.80
2019-04-26T15:46:02.334Z,59.20
2019-04-26T15:48:36.755Z,59.50
2019-04-26T15:51:07.275Z,59.70
2019-04-26T15:53:37.002Z,59.80
2019-04-26T15:56:10.119Z,59.70
2019-04-26T15:58:47.220Z,59.30
2019-04-26T16:01:10.913Z,59.50
2019-04-26T16:03:44.563Z,59.40
2019-04-26T16:06:13.065Z,59.00
2019-04-26T16:08:43.966Z,59.10
2019-04-26T16:11:13.565Z,59.00
2019-04-26T16:13:45.137Z,58.80
2019-04-26T16:16:16.596Z,59.20
2019-04-26T16:18:49.849Z,59.70
2019-04-26T16:21:19.381Z,59.40
2019-04-26T16:23:52.042Z,59.50
2019-04-26T16:26:22.791Z,59.90
2019-04-26T16:29:05.902Z,59.60
2019-04-26T16:31:46.126Z,59.70
2019-04-26T16:34:25.417Z,59.80
2019-04-26T16:36:55.443Z,59.40
2019-04-26T16:39:32.282Z,59.10
2019-04-26T16:41:59.396Z,59.10
2019-04-26T16:44:31.325Z,59.40
2019-04-26T16:47:03.677Z,59.90
2019-04-26T16:49:35.054Z,60.10
2019-04-26T16:52:07.035Z,60.30
2019-04-26T16:54:36.328Z,60.30
2019-04-26T16:57:11.216Z,60.20
2019-04-26T16:59:37.772Z,59.80
2019-04-26T17:02:07.696Z,59.80
2019-04-26T17:04:37.594Z,60.70
2019-04-26T17:07:07.137Z,60.70
2019-04-26T17:09:56.988Z,61.00
2019-04-26T17:12:10.466Z,64.00
2019-04-26T17:14:40.605Z,65.40
2019-04-26T17:17:12.547Z,66.20
2019-04-26T17:19:43.394Z,66.60
2019-04-26T17:22:20.928Z,66.80
2019-04-26T17:25:03.918Z,67.30
2019-04-26T17:27:33.613Z,67.70
2019-04-26T17:30:05.943Z,68.50
2019-04-26T17:32:35.855Z,68.70
2019-04-26T17:35:07.619Z,68.10
2019-04-26T17:37:37.320Z,68.20
2019-04-26T17:40:07.558Z,68.40
2019-04-26T17:42:37.120Z,68.70
2019-04-26T17:45:07.594Z,69.80
2019-04-26T17:47:40.103Z,70.90
2019-04-26T17:50:10.977Z,71.90
2019-04-26T17:52:44.023Z,72.30
2019-04-26T17:55:14.910Z,72.70
2019-04-26T17:57:48.364Z,73.20
2019-04-26T18:00:20.808Z,73.10
2019-04-26T18:02:50.914Z,73.80
2019-04-26T18:05:24.449Z,74.00
2019-04-26T18:07:58.462Z,73.70
2019-04-26T18:10:23.934Z,74.20
2019-04-26T18:12:53.702Z,73.90
2019-04-26T18:15:24.135Z,74.20
2019-04-26T18:18:04.830Z,74.20
2019-04-26T18:20:37.350Z,74.30
2019-04-26T18:23:17.434Z,74.10
2019-04-26T18:25:45.197Z,73.80
2019-04-26T18:28:16.068Z,74.00
2019-04-26T18:30:47.577Z,73.90
2019-04-26T18:33:21.910Z,74.30
2019-04-26T18:35:55.944Z,74.30
2019-04-26T18:38:22.910Z,74.40
2019-04-26T18:41:01.005Z,74.20
2019-04-26T18:43:25.072Z,74.60
2019-04-26T18:45:58.600Z,74.80
2019-04-26T18:48:27.765Z,74.70
2019-04-26T18:50:57.310Z,74.90
2019-04-26T18:53:36.691Z,74.50
2019-04-26T18:56:07.006Z,75.00
2019-04-26T18:58:37.978Z,74.90
2019-04-26T19:01:09.687Z,75.00
2019-04-26T19:03:39.531Z,74.60
2019-04-26T19:06:09.090Z,74.40
2019-04-26T19:08:47.661Z,74.70
2019-04-26T19:11:11.600Z,74.90
2019-04-26T19:14:02.198Z,74.90
2019-04-26T19:16:36.584Z,75.10
2019-04-26T19:19:07.853Z,74.70
2019-04-26T19:21:42.139Z,75.20
2019-04-26T19:24:19.331Z,75.30
2019-04-26T19:26:44.201Z,75.50
2019-04-26T19:29:18.235Z,75.80
2019-04-26T19:31:46.398Z,75.80
2019-04-26T19:34:17.807Z,75.80
2019-04-26T19:36:47.861Z,76.00
2019-04-26T19:39:22.782Z,76.20
2019-04-26T19:41:53.566Z,76.20
2019-04-26T19:44:24.079Z,76.20
2019-04-26T19:47:23.782Z,76.50
2019-04-26T19:49:55.088Z,76.30
2019-04-26T19:52:33.668Z,76.10
2019-04-26T19:55:16.172Z,75.90
2019-04-26T19:57:59.512Z,75.80
2019-04-26T20:00:29.513Z,75.90
2019-04-26T20:02:59.094Z,75.90
2019-04-26T20:05:29.266Z,75.90
2019-04-26T20:08:02.936Z,76.40
2019-04-26T20:10:34.609Z,76.40
2019-04-26T20:13:02.563Z,76.40
2019-04-26T20:15:32.748Z,76.30
2019-04-26T20:18:03.970Z,76.40
2019-04-26T20:20:36.289Z,76.20
2019-04-26T20:23:07.834Z,76.40
2019-04-26T20:25:36.932Z,76.50
2019-04-26T20:28:06.843Z,76.80
2019-04-26T20:30:57.471Z,76.70
2019-04-26T20:33:30.516Z,76.70
2019-04-26T20:36:01.953Z,76.70
2019-04-26T20:38:29.442Z,76.50
2019-04-26T20:40:59.427Z,76.70
2019-04-26T20:43:29.268Z,77.00
2019-04-26T20:46:12.487Z,77.00
2019-04-26T20:48:33.029Z,76.80
2019-04-26T20:51:02.344Z,76.90
2019-04-26T20:53:40.133Z,77.00
2019-04-26T20:56:09.717Z,77.30
2019-04-26T20:58:37.570Z,77.00
2019-04-26T21:01:12.973Z,77.20
2019-04-26T21:03:42.849Z,77.60
2019-04-26T21:06:11.663Z,77.80
2019-04-26T21:08:42.396Z,77.00
2019-04-26T21:11:13.595Z,77.40
2019-04-26T21:13:42.673Z,81.50
2019-04-26T21:16:15.292Z,77.60
2019-04-26T21:18:44.502Z,77.40
2019-04-26T21:21:16.219Z,77.40
2019-04-26T21:23:47.576Z,77.50
2019-04-26T21:26:18.800Z,77.80
2019-04-26T21:29:06.957Z,77.90
2019-04-26T21:31:40.952Z,77.90
2019-04-26T21:34:12.534Z,78.10
2019-04-26T21:37:00.972Z,78.40
2019-04-26T21:39:35.483Z,78.40
2019-04-26T21:42:10.780Z,78.30
2019-04-26T21:44:44.155Z,78.50
2019-04-26T21:47:13.445Z,78.90
2019-04-26T21:49:43.728Z,79.10
2019-04-26T21:52:13.759Z,79.30
2019-04-26T21:54:43.642Z,79.30
2019-04-26T21:57:13.500Z,79.70
2019-04-26T21:59:44.214Z,79.70
2019-04-26T22:02:14.487Z,79.90
2019-04-26T22:04:43.999Z,80.40
2019-04-26T22:07:14.589Z,80.40
2019-04-26T22:09:45.970Z,80.40
2019-04-26T22:12:16.579Z,80.90
2019-04-26T22:14:50.620Z,80.70
2019-04-26T22:17:30.255Z,80.60
2019-04-26T22:20:19.626Z,80.20
2019-04-26T22:23:07.341Z,79.80
2019-04-26T22:25:38.631Z,79.80
2019-04-26T22:28:08.555Z,79.70
2019-04-26T22:30:38.474Z,79.80
2019-04-26T22:33:07.995Z,79.90
2019-04-26T22:35:37.873Z,79.90
2019-04-26T22:38:08.634Z,79.50
2019-04-26T22:40:38.540Z,79.70
2019-04-26T22:43:22.953Z,79.70
2019-04-26T22:45:57.271Z,79.80
2019-04-26T22:48:34.794Z,79.80
2019-04-26T22:51:06.203Z,80.00
2019-04-26T22:53:35.973Z,79.70
2019-04-26T22:56:05.500Z,79.60
2019-04-26T22:58:35.394Z,79.80
2019-04-26T23:01:06.256Z,80.30
2019-04-26T23:03:41.207Z,80.70
2019-04-26T23:06:11.703Z,81.00
2019-04-26T23:08:39.963Z,81.30
2019-04-26T23:11:10.676Z,81.50
2019-04-26T23:13:44.606Z,81.60
2019-04-26T23:16:16.035Z,86.80
2019-04-26T23:18:59.462Z,81.50
2019-04-26T23:21:30.823Z,81.40
2019-04-26T23:24:00.331Z,81.50
2019-04-26T23:26:30.039Z,81.30
2019-04-26T23:28:59.841Z,81.70
2019-04-26T23:31:29.776Z,81.80
2019-04-26T23:33:59.706Z,82.20
2019-04-26T23:36:29.636Z,82.30
2019-04-26T23:38:59.497Z,82.20
2019-04-26T23:41:29.462Z,82.20
2019-04-26T23:44:02.915Z,82.20
2019-04-26T23:46:30.898Z,82.70
2019-04-26T23:49:00.505Z,82.50
2019-04-26T23:51:30.319Z,82.40
2019-04-26T23:54:00.241Z,82.00
2019-04-26T23:56:30.224Z,81.70
2019-04-26T23:59:00.034Z,81.90
